createdAt,value
2022-08-19T00:00:28.691Z,98629.67
2022-08-19T00:05:44.292Z,98633.45
2022-08-19T00:10:51.263Z,98631.64
2022-08-19T00:15:59.799Z,98633.14
2022-08-19T00:21:10.685Z,98631.83
2022-08-19T00:26:18.233Z,98631.97
2022-08-19T00:31:26.445Z,98630.71
2022-08-19T00:36:34.384Z,98632.84
2022-08-19T00:41:42.704Z,98629.22
2022-08-19T00:46:57.773Z,98628.38
2022-08-19T00:52:09.727Z,98631.86
2022-08-19T00:57:21.301Z,98628.69
2022-08-19T01:02:29.499Z,98623.13
2022-08-19T01:07:38.327Z,98623.55
2022-08-19T01:12:45.771Z,98617.02
2022-08-19T01:17:54.100Z,98614.64
2022-08-19T01:23:02.915Z,98606.81
2022-08-19T01:28:10.821Z,98590.75
2022-08-19T01:33:18.805Z,98591.59
2022-08-19T01:38:29.589Z,98591.50
2022-08-19T01:43:38.205Z,98589.40
2022-08-19T01:49:08.557Z,98587.86
2022-08-19T01:54:23.424Z,98589.22
2022-08-19T01:59:38.169Z,98593.48
2022-08-19T02:04:46.995Z,98595.27
2022-08-19T02:09:54.543Z,98592.11
2022-08-19T02:15:03.568Z,98591.41
2022-08-19T02:20:14.239Z,98587.66
2022-08-19T02:25:22.001Z,98577.02
2022-08-19T02:30:29.304Z,98574.23
2022-08-19T02:35:36.732Z,98572.42
2022-08-19T02:40:50.791Z,98577.02
2022-08-19T02:45:58.279Z,98582.20
2022-08-19T02:51:05.434Z,98588.79
2022-08-19T02:56:12.541Z,98580.63
2022-08-19T03:01:26.861Z,98583.29
2022-08-19T03:06:34.211Z,98594.90
2022-08-19T03:11:41.670Z,98603.45
2022-08-19T03:16:50.914Z,98605.02
2022-08-19T03:21:59.102Z,98601.17
2022-08-19T03:27:06.426Z,98610.05
2022-08-19T03:32:19.802Z,98607.92
2022-08-19T03:37:42.365Z,98602.95
2022-08-19T03:42:49.704Z,98602.14
2022-08-19T03:47:57.326Z,98608.46
2022-08-19T03:53:04.492Z,98611.04
2022-08-19T03:58:12.349Z,98611.89
2022-08-19T04:03:20.329Z,98619.83
2022-08-19T04:08:27.363Z,98613.47
2022-08-19T04:13:34.233Z,98608.85
2022-08-19T04:18:43.727Z,98605.69
2022-08-19T04:23:53.726Z,98604.33
2022-08-19T04:29:11.702Z,98612.70
2022-08-19T04:34:25.341Z,98614.77
2022-08-19T04:39:51.644Z,98604.11
2022-08-19T04:45:09.306Z,98617.44
2022-08-19T04:50:17.677Z,98631.13
2022-08-19T04:55:26.842Z,98643.73
2022-08-19T05:00:33.963Z,98647.91
2022-08-19T05:05:46.361Z,98658.70
2022-08-19T05:10:54.509Z,98659.22
2022-08-19T05:16:02.619Z,98665.08
2022-08-19T05:21:30.687Z,98665.08
2022-08-19T05:26:38.299Z,98661.05
2022-08-19T05:31:46.773Z,98664.53
2022-08-19T05:36:58.200Z,98667.63
2022-08-19T05:42:08.569Z,98665.38
2022-08-19T05:47:17.279Z,98656.81
2022-08-19T05:52:25.941Z,98659.95
2022-08-19T05:57:41.421Z,98663.02
2022-08-19T06:02:48.507Z,98664.04
2022-08-19T06:07:55.755Z,98661.23
2022-08-19T06:13:03.006Z,98652.52
2022-08-19T06:18:09.944Z,98659.33
2022-08-19T06:23:17.816Z,98660.70
2022-08-19T06:28:26.346Z,98667.88
2022-08-19T06:33:33.377Z,98673.17
2022-08-19T06:38:40.867Z,98669.63
2022-08-19T06:43:47.792Z,98672.67
2022-08-19T06:48:55.646Z,98678.16
2022-08-19T06:54:03.612Z,98677.61
2022-08-19T06:59:13.709Z,98677.45
2022-08-19T07:04:24.909Z,98689.73
2022-08-19T07:09:32.721Z,98700.13
2022-08-19T07:14:41.453Z,98708.75
2022-08-19T07:19:48.536Z,98699.34
2022-08-19T07:24:56.463Z,98689.60
2022-08-19T07:30:03.857Z,98692.64
2022-08-19T07:35:12.402Z,98693.80
2022-08-19T07:40:19.951Z,98698.98
2022-08-19T07:45:28.765Z,98702.14
2022-08-19T07:50:36.717Z,98701.83
2022-08-19T07:55:44.181Z,98706.89
2022-08-19T08:00:53.465Z,98710.54
2022-08-19T08:06:18.869Z,98718.64
2022-08-19T08:11:28.975Z,98723.20
2022-08-19T08:16:47.281Z,98723.36
2022-08-19T08:21:56.966Z,98728.10
2022-08-19T08:27:11.195Z,98728.26
2022-08-19T08:32:18.886Z,98727.97
2022-08-19T08:37:26.281Z,98727.14
2022-08-19T08:42:36.354Z,98730.70
2022-08-19T08:47:45.976Z,98723.38
2022-08-19T08:52:57.181Z,98722.10
2022-08-19T08:58:08.094Z,98721.23
2022-08-19T09:03:23.107Z,98720.70
2022-08-19T09:08:41.285Z,98718.81
2022-08-19T09:14:29.113Z,98714.60
2022-08-19T09:19:49.694Z,98711.23
2022-08-19T09:24:58.363Z,98713.14
2022-08-19T09:30:06.207Z,98714.92
2022-08-19T09:35:15.014Z,98701.42
2022-08-19T09:40:22.566Z,98695.73
2022-08-19T09:45:32.300Z,98690.45
2022-08-19T09:50:51.937Z,98687.17
2022-08-19T09:56:00.431Z,98684.57
2022-08-19T10:01:12.341Z,98682.98
2022-08-19T10:06:20.149Z,98674.95
2022-08-19T10:11:54.879Z,98674.52
2022-08-19T10:17:17.410Z,98670.59
2022-08-19T10:22:25.974Z,98670.39
2022-08-19T10:27:33.593Z,98662.27
2022-08-19T10:32:46.307Z,98657.00
2022-08-19T10:37:57.338Z,98653.56
2022-08-19T10:43:05.033Z,98655.84
2022-08-19T10:48:15.613Z,98658.61
2022-08-19T10:53:26.955Z,98663.48
2022-08-19T10:58:34.835Z,98665.98
2022-08-19T11:03:46.756Z,98662.56
2022-08-19T11:08:54.046Z,98660.67
2022-08-19T11:14:01.148Z,98653.59
2022-08-19T11:19:09.764Z,98647.39
2022-08-19T11:24:19.022Z,98637.66
2022-08-19T11:29:28.870Z,98636.44
2022-08-19T11:34:36.619Z,98629.83
2022-08-19T11:39:43.674Z,98626.81
2022-08-19T11:44:59.598Z,98622.36
2022-08-19T11:50:07.591Z,98615.94
2022-08-19T11:55:15.782Z,98612.69
2022-08-19T12:00:23.489Z,98615.77
2022-08-19T12:05:31.130Z,98622.31
2022-08-19T12:10:43.295Z,98633.20
2022-08-19T12:15:51.418Z,98631.48
2022-08-19T12:20:58.350Z,98628.75
2022-08-19T12:26:05.624Z,98629.22
2022-08-19T12:31:13.762Z,98626.29
2022-08-19T12:36:21.192Z,98626.77
2022-08-19T12:41:28.409Z,98620.38
2022-08-19T12:46:35.235Z,98611.61
2022-08-19T12:51:43.840Z,98617.66
2022-08-19T12:56:50.954Z,98608.45
2022-08-19T13:01:58.706Z,98601.95
2022-08-19T13:07:06.282Z,98602.78
2022-08-19T13:12:14.733Z,98603.06
2022-08-19T13:17:23.335Z,98607.63
2022-08-19T13:22:30.952Z,98607.63
2022-08-19T13:27:38.653Z,98600.51
2022-08-19T13:33:05.569Z,98595.62
2022-08-19T13:38:13.235Z,98592.09
2022-08-19T13:43:23.803Z,98588.70
2022-08-19T13:48:32.293Z,98588.02
2022-08-19T13:53:39.967Z,98585.23
2022-08-19T13:58:47.719Z,98585.20
2022-08-19T14:03:55.094Z,98571.47
2022-08-19T14:09:03.574Z,98571.44
2022-08-19T14:14:13.321Z,98562.09
2022-08-19T14:19:23.357Z,98559.94
2022-08-19T14:24:30.564Z,98565.89
2022-08-19T14:29:37.631Z,98555.57
2022-08-19T14:34:47.058Z,98546.83
2022-08-19T14:39:54.495Z,98540.59
2022-08-19T14:45:03.182Z,98551.86
2022-08-19T14:50:18.452Z,98557.70
2022-08-19T14:55:25.985Z,98559.54
2022-08-19T15:00:33.291Z,98557.45
2022-08-19T15:05:43.973Z,98551.40
2022-08-19T15:10:51.074Z,98544.29
2022-08-19T15:15:58.555Z,98534.65
2022-08-19T15:21:06.419Z,98522.81
2022-08-19T15:26:16.029Z,98519.63
2022-08-19T15:31:25.247Z,98513.90
2022-08-19T15:36:36.505Z,98509.02
2022-08-19T15:41:46.335Z,98507.23
2022-08-19T15:46:53.688Z,98505.86
2022-08-19T15:52:01.917Z,98502.95
2022-08-19T15:57:27.233Z,98494.38
2022-08-19T16:02:53.593Z,98494.45
2022-08-19T16:08:01.412Z,98495.05
2022-08-19T16:13:11.062Z,98499.89
2022-08-19T16:18:18.009Z,98502.56
2022-08-19T16:23:25.048Z,98507.34
2022-08-19T16:28:32.198Z,98515.21
2022-08-19T16:33:39.022Z,98512.35
2022-08-19T16:38:46.703Z,98511.17
2022-08-19T16:43:53.723Z,98516.42
2022-08-19T16:49:00.716Z,98522.68
2022-08-19T16:54:08.268Z,98526.78
2022-08-19T16:59:15.622Z,98530.95
2022-08-19T17:04:22.537Z,98535.35
2022-08-19T17:09:29.597Z,98546.83
2022-08-19T17:14:42.729Z,98541.70
2022-08-19T17:19:53.234Z,98530.59
2022-08-19T17:25:00.737Z,98527.38
2022-08-19T17:30:09.687Z,98522.88
2022-08-19T17:35:24.180Z,98534.66
2022-08-19T17:40:31.540Z,98542.98
2022-08-19T17:45:41.355Z,98540.64
2022-08-19T17:50:48.338Z,98535.72
2022-08-19T17:55:55.307Z,98539.61
2022-08-19T18:01:03.032Z,98552.63
2022-08-19T18:06:12.707Z,98562.70
2022-08-19T18:11:19.989Z,98557.65
2022-08-19T18:16:27.912Z,98567.27
2022-08-19T18:21:36.299Z,98577.19
2022-08-19T18:26:44.062Z,98580.75
2022-08-19T18:31:51.168Z,98586.76
2022-08-19T18:36:58.168Z,98585.01
2022-08-19T18:42:23.247Z,98592.25
2022-08-19T18:47:48.356Z,98589.82
2022-08-19T18:52:55.404Z,98588.67
2022-08-19T18:58:03.114Z,98611.02
2022-08-19T19:03:11.479Z,98666.77
2022-08-19T19:08:18.645Z,98690.56
2022-08-19T19:13:27.076Z,98692.46
2022-08-19T19:18:34.802Z,98715.07
2022-08-19T19:23:42.613Z,98725.02
2022-08-19T19:28:52.386Z,98741.03
2022-08-19T19:33:59.382Z,98745.62
2022-08-19T19:39:06.524Z,98747.05
2022-08-19T19:44:30.832Z,98749.09
2022-08-19T19:49:57.933Z,98746.94
2022-08-19T19:55:09.672Z,98731.30
2022-08-19T20:00:19.466Z,98726.46
2022-08-19T20:05:29.736Z,98738.89
2022-08-19T20:10:37.246Z,98733.17
2022-08-19T20:15:44.910Z,98728.46
2022-08-19T20:20:52.260Z,98727.38
2022-08-19T20:25:59.782Z,98719.49
2022-08-19T20:31:07.613Z,98736.85
2022-08-19T20:36:14.822Z,98747.60
2022-08-19T20:41:22.575Z,98749.77
2022-08-19T20:46:30.393Z,98746.84
2022-08-19T20:51:37.496Z,98753.89
2022-08-19T20:56:44.902Z,98756.22
2022-08-19T21:01:52.928Z,98761.05
2022-08-19T21:07:00.543Z,98754.15
2022-08-19T21:12:09.809Z,98744.31
2022-08-19T21:17:16.836Z,98739.07
2022-08-19T21:22:23.897Z,98738.19
2022-08-19T21:27:31.510Z,98734.65
2022-08-19T21:32:38.824Z,98738.10
2022-08-19T21:37:45.836Z,98738.04
2022-08-19T21:42:53.167Z,98742.54
2022-08-19T21:48:00.338Z,98737.71
2022-08-19T21:53:07.538Z,98735.86
2022-08-19T21:58:18.194Z,98736.21
2022-08-19T22:03:26.041Z,98729.27
2022-08-19T22:08:33.141Z,98724.27
2022-08-19T22:13:40.606Z,98725.29
2022-08-19T22:18:48.061Z,98737.70
2022-08-19T22:23:56.081Z,98741.28
2022-08-19T22:29:03.183Z,98747.95
2022-08-19T22:34:12.334Z,98746.80
2022-08-19T22:39:19.498Z,98749.39
2022-08-19T22:44:26.647Z,98749.38
2022-08-19T22:49:33.682Z,98753.61
2022-08-19T22:54:40.640Z,98755.83
2022-08-19T22:59:48.747Z,98749.34
2022-08-19T23:04:56.602Z,98746.95
2022-08-19T23:10:03.743Z,98746.77
2022-08-19T23:15:17.077Z,98743.04
2022-08-19T23:20:27.518Z,98735.60
2022-08-19T23:25:36.502Z,98729.64
2022-08-19T23:30:45.875Z,98738.26
2022-08-19T23:35:54.780Z,98737.60
2022-08-19T23:41:04.575Z,98735.41
2022-08-19T23:46:14.291Z,98752.69
2022-08-19T23:51:34.790Z,98751.27
2022-08-19T23:56:42.611Z,98743.50
